Time;durP1;ratioP1;P1;durP2;ratioP2;P2;SDS_P1;SDS_P2;PMS_P1;PMS_P2;Temp;Humidity;BMP_temperature;BMP_pressure;BME280_temperature;BME280_humidity;BME280_pressure;Samples;Min_cycle;Max_cycle;Signal;HPM_P1;HPM_P2
2022/01/12 00:01:13;;;;;;;31.87;16.27;;;1.70;99.90;;;;;;5091241;28;20459;-75
2022/01/12 00:03:40;;;;;;;30.57;16.97;;;1.70;99.90;;;;;;5110083;28;20820;-75
2022/01/12 00:06:07;;;;;;;27.53;15.60;;;1.70;99.90;;;;;;5104207;28;20607;-74
2022/01/12 00:08:34;;;;;;;28.33;15.23;;;1.70;99.90;;;;;;5090549;28;20455;-74
2022/01/12 00:11:03;;;;;;;31.93;14.93;;;1.70;99.90;;;;;;5089962;28;20451;-74
2022/01/12 00:13:29;;;;;;;31.53;16.30;;;1.70;99.90;;;;;;5092346;28;20531;-74
2022/01/12 00:15:58;;;;;;;28.47;15.53;;;1.70;99.90;;;;;;5106458;22;21069;-70
2022/01/12 00:18:26;;;;;;;32.37;15.20;;;1.60;99.90;;;;;;5078979;28;20466;-69
2022/01/12 00:20:54;;;;;;;29.20;14.90;;;1.70;99.90;;;;;;5073678;28;20448;-69
2022/01/12 00:23:22;;;;;;;31.40;17.60;;;1.70;99.90;;;;;;5070956;28;20447;-70
2022/01/12 00:26:04;;;;;;;35.33;18.00;;;1.60;99.90;;;;;;5077317;28;20837;-69
2022/01/12 00:34:04;;;;;;;30.33;14.77;;;1.50;99.90;;;;;;5075413;28;20469;-69
2022/01/12 00:36:31;;;;;;;31.60;15.20;;;1.50;99.90;;;;;;5062662;28;20480;-69
2022/01/12 00:38:59;;;;;;;28.60;14.80;;;1.40;99.90;;;;;;5064431;28;20508;-69
2022/01/12 00:41:26;;;;;;;22.27;12.40;;;1.40;99.90;;;;;;5071489;28;20505;-69
2022/01/12 00:43:58;;;;;;;21.13;12.37;;;1.40;99.90;;;;;;5072277;28;20443;-69
2022/01/12 00:46:26;;;;;;;21.47;12.87;;;1.30;99.90;;;;;;5077650;28;20482;-69
2022/01/12 00:48:55;;;;;;;26.60;13.97;;;1.30;99.90;;;;;;5071034;28;20455;-69
2022/01/12 00:51:22;;;;;;;23.60;12.30;;;1.20;99.90;;;;;;5081949;28;20443;-69
2022/01/12 00:53:48;;;;;;;22.03;13.70;;;1.20;99.90;;;;;;5080780;28;20482;-69
2022/01/12 00:56:15;;;;;;;22.93;12.17;;;1.10;99.90;;;;;;5069346;28;20475;-70
2022/01/12 00:58:42;;;;;;;23.47;13.53;;;1.00;99.90;;;;;;5069118;28;20823;-69
2022/01/12 01:01:09;;;;;;;21.63;11.90;;;1.00;99.90;;;;;;5079068;28;20830;-69
2022/01/12 01:03:37;;;;;;;19.43;12.97;;;1.00;99.90;;;;;;5069985;28;20444;-69
2022/01/12 01:06:06;;;;;;;28.97;15.30;;;1.00;99.90;;;;;;5074501;28;20466;-70
2022/01/12 01:08:34;;;;;;;22.23;11.83;;;1.00;99.90;;;;;;5089945;28;20481;-70
2022/01/12 01:11:00;;;;;;;22.00;12.60;;;0.90;99.90;;;;;;5071204;28;20455;-69
2022/01/12 01:13:34;;;;;;;22.53;13.43;;;0.90;99.90;;;;;;5065210;28;20909;-69
2022/01/12 01:16:17;;;;;;;24.73;13.87;;;0.90;99.90;;;;;;5072887;28;20501;-70
2022/01/12 01:26:59;;;;;;;25.27;13.03;;;0.60;99.90;;;;;;5069189;28;20470;-69
2022/01/12 01:29:26;;;;;;;26.10;14.63;;;0.50;99.90;;;;;;5073244;28;20447;-69
2022/01/12 01:31:53;;;;;;;25.33;13.80;;;0.50;99.90;;;;;;5073711;28;20456;-69
2022/01/12 01:34:21;;;;;;;26.53;12.80;;;0.40;99.90;;;;;;5069642;28;20537;-69
2022/01/12 01:36:49;;;;;;;25.00;14.17;;;0.40;99.90;;;;;;5069195;28;20463;-70
2022/01/12 01:39:18;;;;;;;26.93;13.93;;;0.40;99.90;;;;;;5081957;28;21123;-69
2022/01/12 01:41:50;;;;;;;28.53;14.27;;;0.40;99.90;;;;;;5089288;28;21003;-69
2022/01/12 01:55:16;;;;;;;15.67;10.10;;;0.20;99.90;;;;;;5073744;28;20496;-69
2022/01/12 01:57:43;;;;;;;25.60;12.30;;;0.20;99.90;;;;;;5069191;28;20452;-69
2022/01/12 02:00:13;;;;;;;20.50;11.70;;;0.10;99.90;;;;;;5067357;28;20455;-69
2022/01/12 02:02:39;;;;;;;26.77;13.03;;;0.10;99.90;;;;;;5072702;28;20481;-69
2022/01/12 02:05:08;;;;;;;28.70;14.57;;;0.00;99.90;;;;;;5081764;28;21133;-70
2022/01/12 02:07:35;;;;;;;26.27;13.97;;;0.00;99.90;;;;;;5073399;28;20448;-69
2022/01/12 02:10:03;;;;;;;27.30;15.00;;;0.00;99.90;;;;;;5070474;28;20446;-69
2022/01/12 02:12:30;;;;;;;30.07;14.67;;;-0.10;99.90;;;;;;5092432;28;20813;-69
2022/01/12 02:14:58;;;;;;;26.37;14.10;;;-0.10;99.90;;;;;;5084022;28;20459;-70
2022/01/12 02:17:29;;;;;;;28.17;14.90;;;-0.20;99.90;;;;;;5072288;28;20536;-69
2022/01/12 02:20:13;;;;;;;30.07;15.17;;;-0.30;99.90;;;;;;5073017;28;20867;-69
2022/01/12 02:36:56;;;;;;;23.47;13.20;;;-0.40;99.90;;;;;;5063817;28;20466;-69
2022/01/12 02:39:51;;;;;;;25.87;13.00;;;-0.40;99.90;;;;;;5092359;28;20551;-69
2022/01/12 02:42:18;;;;;;;24.17;13.63;;;-0.30;99.90;;;;;;5088900;28;20451;-69
2022/01/12 02:50:44;;;;;;;21.73;12.33;;;-0.30;99.90;;;;;;5030228;28;20441;-69
2022/01/12 02:55:57;;;;;;;20.87;12.37;;;-0.40;99.90;;;;;;5082089;28;20462;-69
2022/01/12 02:58:23;;;;;;;18.87;10.80;;;-0.50;99.90;;;;;;5083757;28;21009;-69
2022/01/12 03:03:53;;;;;;;22.73;12.27;;;-0.50;99.90;;;;;;5001337;28;20437;-69
2022/01/12 03:06:25;;;;;;;24.00;12.47;;;-0.50;99.90;;;;;;4989665;28;20467;-69
2022/01/12 03:08:52;;;;;;;24.03;11.80;;;-0.50;99.90;;;;;;5055578;28;20887;-69
2022/01/12 03:11:22;;;;;;;19.90;11.50;;;-0.50;99.90;;;;;;5079427;28;20501;-69
2022/01/12 03:13:49;;;;;;;17.67;10.13;;;-0.50;99.90;;;;;;5077948;28;20630;-69
2022/01/12 03:16:18;;;;;;;18.40;10.33;;;-0.50;99.90;;;;;;5070442;28;20515;-69
2022/01/12 03:18:46;;;;;;;15.53;10.27;;;-0.40;99.90;;;;;;5071814;28;20468;-69
2022/01/12 03:21:14;;;;;;;17.83;10.97;;;-0.60;99.90;;;;;;5080771;28;20454;-70
2022/01/12 03:23:41;;;;;;;17.53;10.70;;;-0.60;99.90;;;;;;5073264;28;20555;-69
2022/01/12 03:26:09;;;;;;;21.27;11.27;;;-0.50;99.90;;;;;;5071138;28;20894;-69
2022/01/12 03:28:38;;;;;;;16.50;9.73;;;-0.60;99.90;;;;;;5070908;28;20457;-69
2022/01/12 03:31:09;;;;;;;36.67;10.60;;;-0.60;99.90;;;;;;5074957;28;20517;-69
2022/01/12 03:33:51;;;;;;;13.70;9.40;;;-0.60;99.90;;;;;;5071315;28;20479;-69
2022/01/12 03:36:28;;;;;;;19.27;10.00;;;-0.70;99.90;;;;;;5085010;28;20477;-69
2022/01/12 03:38:57;;;;;;;16.80;9.70;;;-0.70;99.90;;;;;;5089811;28;20854;-69
2022/01/12 03:41:24;;;;;;;17.53;9.60;;;-0.60;99.90;;;;;;5086392;28;20443;-69
2022/01/12 03:43:52;;;;;;;13.57;9.23;;;-0.60;99.90;;;;;;5087283;28;20451;-69
2022/01/12 03:46:23;;;;;;;18.57;10.20;;;-0.60;99.90;;;;;;5076369;28;20466;-69
2022/01/12 03:48:49;;;;;;;14.17;8.73;;;-0.50;99.90;;;;;;5091396;28;20443;-69
2022/01/12 03:51:16;;;;;;;12.50;8.60;;;-0.50;99.90;;;;;;5076494;28;20481;-70
2022/01/12 03:53:43;;;;;;;19.03;9.70;;;-0.50;99.90;;;;;;5070922;28;20540;-70
2022/01/12 03:56:10;;;;;;;17.87;10.57;;;-0.40;99.90;;;;;;5070586;28;20467;-70
2022/01/12 03:58:36;;;;;;;16.23;9.60;;;-0.40;99.90;;;;;;5088119;28;20450;-70
2022/01/12 04:01:05;;;;;;;15.07;10.00;;;-0.40;99.90;;;;;;5073729;28;20986;-70
2022/01/12 04:03:37;;;;;;;16.60;10.07;;;-0.40;99.90;;;;;;5089849;28;20443;-70
2022/01/12 04:08:48;;;;;;;16.17;9.47;;;-0.40;99.90;;;;;;5090341;28;20441;-70
2022/01/12 04:11:15;;;;;;;16.33;9.63;;;-0.40;99.90;;;;;;5073064;28;20450;-70
2022/01/12 04:13:43;;;;;;;17.33;10.33;;;-0.30;99.90;;;;;;5070229;28;20491;-70
2022/01/12 04:16:13;;;;;;;14.20;9.37;;;-0.30;99.90;;;;;;5060159;28;20876;-70
2022/01/12 04:18:40;;;;;;;15.53;9.80;;;-0.30;99.90;;;;;;5071940;28;20507;-70
2022/01/12 04:21:08;;;;;;;16.53;9.93;;;-0.20;99.90;;;;;;5074051;28;20967;-70
2022/01/12 04:23:36;;;;;;;18.53;9.50;;;-0.20;99.90;;;;;;5086165;28;20459;-70
2022/01/12 04:26:08;;;;;;;13.17;8.87;;;-0.20;99.90;;;;;;5088932;28;20478;-69
2022/01/12 04:28:38;;;;;;;14.87;9.30;;;-0.20;99.90;;;;;;5075098;28;20456;-70
2022/01/12 04:31:05;;;;;;;12.30;9.03;;;-0.20;99.90;;;;;;5066053;28;20516;-70
2022/01/12 04:33:34;;;;;;;16.10;9.60;;;-0.20;99.90;;;;;;5069834;28;20479;-70
2022/01/12 04:36:01;;;;;;;15.00;9.37;;;-0.10;99.90;;;;;;5069882;28;20566;-70
2022/01/12 04:38:33;;;;;;;18.03;9.00;;;-0.10;99.90;;;;;;5075395;28;20920;-70
2022/01/12 04:41:00;;;;;;;14.63;9.00;;;-0.10;99.90;;;;;;5088524;28;20457;-70
2022/01/12 04:43:27;;;;;;;12.10;7.97;;;-0.10;99.90;;;;;;5089175;28;20462;-70
2022/01/12 04:48:55;;;;;;;15.40;9.50;;;0.00;99.90;;;;;;5053923;28;20921;-70
2022/01/12 04:51:22;;;;;;;13.33;8.70;;;0.00;99.90;;;;;;5089238;28;20463;-70
2022/01/12 04:53:49;;;;;;;18.47;10.37;;;0.00;99.90;;;;;;5081193;28;21654;-70
2022/01/12 04:56:16;;;;;;;13.57;9.17;;;-0.10;99.90;;;;;;5078156;28;20498;-70
2022/01/12 04:58:42;;;;;;;17.70;9.77;;;-0.10;99.90;;;;;;5068824;28;20455;-70
2022/01/12 05:01:13;;;;;;;13.47;9.10;;;-0.10;99.90;;;;;;5069633;28;20581;-70
2022/01/12 05:06:47;;;;;;;16.67;9.60;;;-0.10;99.90;;;;;;5032544;28;20457;-70
2022/01/12 05:09:28;;;;;;;15.43;9.07;;;0.00;99.90;;;;;;5076644;28;20447;-70
2022/01/12 05:14:45;;;;;;;20.87;9.40;;;0.10;99.90;;;;;;5050024;28;20561;-69
2022/01/12 05:17:12;;;;;;;11.57;8.30;;;0.10;99.90;;;;;;5066181;28;20570;-70
2022/01/12 05:19:38;;;;;;;14.47;9.00;;;0.10;99.90;;;;;;5060624;28;20489;-70
2022/01/12 05:22:06;;;;;;;13.30;8.87;;;0.10;99.90;;;;;;5068596;28;20451;-70
2022/01/12 05:24:33;;;;;;;14.07;9.37;;;0.10;99.90;;;;;;5069273;28;20439;-70
2022/01/12 05:27:00;;;;;;;11.80;7.50;;;0.00;99.90;;;;;;5080186;28;20549;-70
2022/01/12 05:29:27;;;;;;;14.90;9.50;;;0.00;99.90;;;;;;5084392;28;20489;-70
2022/01/12 05:31:53;;;;;;;13.93;9.43;;;0.00;99.90;;;;;;5076745;28;20463;-69
2022/01/12 05:34:20;;;;;;;12.50;7.63;;;-0.10;99.90;;;;;;5076535;28;20478;-69
2022/01/12 05:36:47;;;;;;;10.90;7.90;;;-0.10;99.90;;;;;;5095671;28;20500;-69
2022/01/12 05:39:15;;;;;;;13.27;8.07;;;-0.10;99.90;;;;;;5112963;28;20481;-69
2022/01/12 05:41:42;;;;;;;13.40;8.60;;;-0.10;99.90;;;;;;5121096;28;20430;-69
2022/01/12 05:44:10;;;;;;;15.03;8.70;;;-0.10;99.90;;;;;;5107195;28;20451;-70
2022/01/12 05:46:40;;;;;;;13.10;9.03;;;-0.10;99.90;;;;;;5074315;28;20474;-70
2022/01/12 05:51:51;;;;;;;14.43;9.37;;;0.00;99.90;;;;;;5073113;28;20797;-69
2022/01/12 05:54:19;;;;;;;12.83;8.90;;;0.10;99.90;;;;;;5073782;28;20494;-69
2022/01/12 05:56:47;;;;;;;14.70;8.67;;;0.10;99.90;;;;;;5071845;28;20471;-69
2022/01/12 05:59:14;;;;;;;14.07;8.90;;;0.10;99.90;;;;;;5081252;28;20861;-69
2022/01/12 06:01:41;;;;;;;16.17;9.80;;;0.10;99.90;;;;;;5079899;28;20454;-69
2022/01/12 06:04:07;;;;;;;20.00;8.90;;;0.20;99.90;;;;;;5073215;28;20444;-71
2022/01/12 06:06:34;;;;;;;17.03;9.37;;;0.10;99.90;;;;;;5074860;28;20475;-70
2022/01/12 06:09:01;;;;;;;13.70;9.20;;;0.10;99.90;;;;;;5083060;28;20508;-70
2022/01/12 06:11:29;;;;;;;15.93;9.30;;;0.10;99.90;;;;;;5083438;28;20455;-70
2022/01/12 06:13:57;;;;;;;17.00;9.83;;;0.20;99.90;;;;;;5081770;28;20478;-70
2022/01/12 06:16:24;;;;;;;14.33;8.20;;;0.20;99.90;;;;;;5094552;22;20496;-81
2022/01/12 06:18:50;;;;;;;15.40;8.87;;;0.10;99.90;;;;;;5058516;28;20510;-82
2022/01/12 06:21:17;;;;;;;18.60;9.63;;;0.00;99.90;;;;;;5058746;28;20445;-81
2022/01/12 06:23:44;;;;;;;13.70;8.60;;;0.10;99.90;;;;;;5062759;28;20521;-81
2022/01/12 06:26:10;;;;;;;16.27;9.10;;;0.00;99.90;;;;;;5059223;28;20479;-81
2022/01/12 06:28:42;;;;;;;15.87;9.30;;;0.00;99.90;;;;;;5058599;28;20456;-81
2022/01/12 06:31:11;;;;;;;15.60;9.73;;;0.00;99.90;;;;;;5058410;28;20538;-81
2022/01/12 06:33:38;;;;;;;18.77;9.53;;;0.00;99.90;;;;;;5058485;28;20444;-79
2022/01/12 06:36:05;;;;;;;14.37;9.30;;;0.00;99.90;;;;;;5058566;28;20472;-81
2022/01/12 06:38:32;;;;;;;16.87;9.70;;;0.00;99.90;;;;;;5058570;28;20448;-81
2022/01/12 06:40:59;;;;;;;12.97;8.43;;;0.00;99.90;;;;;;5056912;28;20465;-82
2022/01/12 06:43:27;;;;;;;13.73;8.10;;;0.10;99.90;;;;;;5054351;28;20460;-81
2022/01/12 06:45:56;;;;;;;14.50;9.03;;;0.10;99.90;;;;;;5073059;28;20961;-81
2022/01/12 06:48:23;;;;;;;13.47;9.00;;;0.10;99.90;;;;;;5053567;28;20453;-81
2022/01/12 06:50:49;;;;;;;19.20;10.00;;;0.20;99.90;;;;;;5065225;28;20452;-81
2022/01/12 06:53:16;;;;;;;15.57;8.83;;;0.10;99.90;;;;;;5059657;28;21002;-81
2022/01/12 06:55:43;;;;;;;16.57;10.20;;;0.10;99.90;;;;;;5066378;28;20488;-81
2022/01/12 06:58:10;;;;;;;17.17;10.00;;;0.10;99.90;;;;;;5053173;28;20517;-81
2022/01/12 07:00:37;;;;;;;16.27;9.90;;;0.10;99.90;;;;;;5064660;28;20779;-80
2022/01/12 07:03:05;;;;;;;18.37;9.30;;;0.10;99.90;;;;;;5049864;28;20933;-78
2022/01/12 07:05:31;;;;;;;17.13;9.27;;;0.10;99.90;;;;;;5053113;28;20461;-78
2022/01/12 07:07:58;;;;;;;12.67;9.03;;;0.10;99.90;;;;;;5049405;28;20863;-77
2022/01/12 07:10:25;;;;;;;15.83;10.20;;;0.20;99.90;;;;;;5057783;28;20461;-78
2022/01/12 07:12:52;;;;;;;17.27;10.53;;;0.20;99.90;;;;;;5054180;28;20479;-76
2022/01/12 07:15:19;;;;;;;19.97;11.37;;;0.20;99.90;;;;;;5048929;28;20541;-77
2022/01/12 07:17:45;;;;;;;15.73;9.60;;;0.20;99.90;;;;;;5053408;28;20480;-77
2022/01/12 07:20:14;;;;;;;15.73;9.93;;;0.20;99.90;;;;;;5052090;28;20460;-77
2022/01/12 07:22:41;;;;;;;18.63;10.53;;;0.30;99.90;;;;;;5049507;28;20492;-76
2022/01/12 07:25:09;;;;;;;18.43;10.50;;;0.20;99.90;;;;;;5051010;28;20456;-76
2022/01/12 07:27:35;;;;;;;17.93;10.03;;;0.20;99.90;;;;;;5055090;28;20472;-76
2022/01/12 07:30:03;;;;;;;23.20;10.43;;;0.20;99.90;;;;;;5051319;28;20480;-77
2022/01/12 07:32:30;;;;;;;14.87;9.80;;;0.30;99.90;;;;;;5045473;28;20460;-77
2022/01/12 07:34:57;;;;;;;17.23;9.57;;;0.30;99.90;;;;;;5047663;28;20485;-77
2022/01/12 07:37:25;;;;;;;14.57;9.27;;;0.30;99.90;;;;;;5046814;28;21007;-79
2022/01/12 07:39:51;;;;;;;16.27;9.80;;;0.30;99.90;;;;;;5043983;28;21018;-76
2022/01/12 07:42:18;;;;;;;15.90;10.47;;;0.30;99.90;;;;;;5048509;28;20460;-77
2022/01/12 07:44:45;;;;;;;16.10;9.50;;;0.30;99.90;;;;;;5049290;28;20456;-77
2022/01/12 07:47:11;;;;;;;17.10;10.37;;;0.30;99.90;;;;;;5048165;28;20768;-75
2022/01/12 07:49:38;;;;;;;19.53;9.60;;;0.30;99.90;;;;;;5049045;28;20452;-77
2022/01/12 07:52:05;;;;;;;15.63;9.23;;;0.30;99.90;;;;;;5047787;28;20449;-78
2022/01/12 07:54:33;;;;;;;17.03;9.60;;;0.40;99.90;;;;;;5048791;28;21085;-75
2022/01/12 07:57:00;;;;;;;15.77;9.57;;;0.40;99.90;;;;;;5047762;28;20507;-77
2022/01/12 07:59:27;;;;;;;16.23;9.80;;;0.40;99.90;;;;;;5049777;28;20456;-76
2022/01/12 08:01:54;;;;;;;19.93;10.63;;;0.40;99.90;;;;;;5045814;28;20464;-76
2022/01/12 08:04:20;;;;;;;16.57;9.93;;;0.40;99.90;;;;;;5043003;28;20478;-76
2022/01/12 08:06:48;;;;;;;18.70;10.27;;;0.40;99.90;;;;;;5041183;28;20472;-74
2022/01/12 08:09:41;;;;;;;17.23;10.80;;;0.40;99.90;;;;;;5044902;28;20456;-78
2022/01/12 08:12:09;;;;;;;20.47;10.37;;;0.40;99.90;;;;;;5040331;28;20534;-74
2022/01/12 08:14:35;;;;;;;19.07;10.13;;;0.40;99.90;;;;;;5041616;28;20485;-75
2022/01/12 08:17:02;;;;;;;21.90;10.20;;;0.50;99.90;;;;;;5048498;28;20476;-73
2022/01/12 08:19:30;;;;;;;16.07;10.17;;;0.60;99.90;;;;;;5047911;28;20811;-77
2022/01/12 08:21:57;;;;;;;14.37;9.50;;;0.60;99.90;;;;;;5047059;28;20552;-74
2022/01/12 08:24:23;;;;;;;17.20;10.20;;;0.70;99.90;;;;;;5051516;28;20453;-75
2022/01/12 08:26:51;;;;;;;16.00;9.70;;;0.70;99.90;;;;;;5050717;28;20560;-75
2022/01/12 08:29:18;;;;;;;26.10;11.27;;;0.60;99.90;;;;;;5050580;28;20460;-75
2022/01/12 08:31:46;;;;;;;18.37;10.30;;;0.60;99.90;;;;;;5048429;28;20465;-74
2022/01/12 08:34:13;;;;;;;18.10;11.27;;;0.80;99.90;;;;;;5051303;28;20456;-77
2022/01/12 08:36:41;;;;;;;26.90;14.07;;;0.80;99.90;;;;;;5050516;28;20469;-77
2022/01/12 08:39:09;;;;;;;15.30;11.03;;;0.80;99.90;;;;;;5049306;28;20453;-78
2022/01/12 08:41:36;;;;;;;20.67;11.90;;;0.80;99.90;;;;;;5050378;28;20487;-77
2022/01/12 08:44:08;;;;;;;24.17;14.07;;;1.00;99.90;;;;;;5051467;28;20487;-77
2022/01/12 08:46:37;;;;;;;25.03;14.43;;;1.40;99.90;;;;;;5050076;28;20464;-76
2022/01/12 08:49:04;;;;;;;22.27;11.93;;;1.90;99.90;;;;;;5043576;28;20772;-77
2022/01/12 08:51:31;;;;;;;19.97;10.13;;;2.30;99.90;;;;;;5050195;28;20456;-77
2022/01/12 08:53:58;;;;;;;18.10;11.60;;;2.20;99.90;;;;;;5048737;28;20460;-74
2022/01/12 08:56:24;;;;;;;14.33;9.33;;;2.10;99.90;;;;;;5053016;28;21277;-77
2022/01/12 08:58:51;;;;;;;14.80;10.00;;;2.10;99.90;;;;;;5048943;28;20829;-77
2022/01/12 09:01:20;;;;;;;17.17;9.50;;;2.10;99.90;;;;;;5051898;28;20861;-75
2022/01/12 09:03:47;;;;;;;14.00;9.70;;;2.30;99.90;;;;;;5049756;28;20461;-77
2022/01/12 09:06:14;;;;;;;14.10;9.80;;;2.30;99.90;;;;;;5045846;28;20476;-76
2022/01/12 09:08:42;;;;;;;14.63;9.73;;;2.30;99.90;;;;;;5057355;28;20487;-77
2022/01/12 09:11:09;;;;;;;14.73;9.20;;;2.40;99.90;;;;;;5055541;28;20583;-77
2022/01/12 09:13:37;;;;;;;16.43;9.83;;;2.50;99.90;;;;;;5048633;28;20458;-77
2022/01/12 09:16:06;;;;;;;15.37;10.10;;;2.80;99.90;;;;;;5056505;28;20668;-76
2022/01/12 09:18:35;;;;;;;17.33;10.53;;;3.40;99.90;;;;;;5043837;28;20444;-77
2022/01/12 09:21:01;;;;;;;14.67;9.70;;;3.80;99.90;;;;;;5055339;28;20483;-77
2022/01/12 09:23:28;;;;;;;15.83;11.23;;;4.10;99.90;;;;;;5054734;28;20482;-76
2022/01/12 09:25:55;;;;;;;14.27;9.90;;;4.00;99.90;;;;;;5056896;28;20487;-77
2022/01/12 09:28:22;;;;;;;15.87;9.70;;;4.00;99.90;;;;;;5056257;28;20452;-77
2022/01/12 09:30:51;;;;;;;18.80;10.13;;;3.90;99.90;;;;;;5056020;28;20847;-75
2022/01/12 09:33:18;;;;;;;15.70;9.67;;;3.70;99.90;;;;;;5055168;28;20511;-77
2022/01/12 09:35:49;;;;;;;20.13;9.97;;;3.50;99.90;;;;;;5055253;28;21220;-77
2022/01/12 09:38:15;;;;;;;16.37;10.20;;;3.30;99.90;;;;;;5049358;28;20475;-76
2022/01/12 09:40:43;;;;;;;15.13;10.47;;;3.10;99.90;;;;;;5044481;28;20456;-77
2022/01/12 09:43:10;;;;;;;17.93;10.83;;;2.80;99.90;;;;;;5051692;28;20449;-77
2022/01/12 09:45:38;;;;;;;23.40;12.53;;;2.70;99.90;;;;;;5055514;28;20452;-77
2022/01/12 09:48:09;;;;;;;25.77;12.03;;;2.70;99.90;;;;;;5056481;28;20457;-77
2022/01/12 09:50:36;;;;;;;17.10;11.37;;;2.60;99.90;;;;;;5056676;28;20440;-77
2022/01/12 09:53:04;;;;;;;22.00;11.47;;;2.60;99.90;;;;;;5054721;28;20428;-77
2022/01/12 09:55:31;;;;;;;18.00;11.10;;;2.60;99.90;;;;;;5056128;28;20472;-76
2022/01/12 09:57:58;;;;;;;18.53;11.03;;;2.70;99.90;;;;;;5052696;28;20847;-77
2022/01/12 10:00:26;;;;;;;14.97;10.20;;;2.70;99.90;;;;;;5052117;28;21372;-76
2022/01/12 10:02:53;;;;;;;16.67;9.93;;;2.80;99.90;;;;;;5049390;28;20471;-76
2022/01/12 10:05:29;;;;;;;20.67;10.83;;;2.80;99.90;;;;;;5045658;28;21130;-75
2022/01/12 10:08:08;;;;;;;17.07;10.17;;;2.80;99.90;;;;;;5049892;28;20879;-74
2022/01/12 10:10:35;;;;;;;16.20;10.13;;;2.80;99.90;;;;;;5045496;28;20467;-75
2022/01/12 10:13:01;;;;;;;23.33;12.07;;;2.70;99.90;;;;;;5049888;28;20460;-76
2022/01/12 10:15:29;;;;;;;15.83;10.50;;;2.70;99.90;;;;;;5052336;28;20492;-76
2022/01/12 10:18:01;;;;;;;19.87;10.07;;;2.80;99.90;;;;;;5047246;28;20468;-76
2022/01/12 10:20:28;;;;;;;18.50;9.77;;;2.90;99.90;;;;;;5048041;28;20480;-74
2022/01/12 10:23:00;;;;;;;18.30;10.27;;;2.80;99.90;;;;;;5046888;28;20448;-75
2022/01/12 10:25:30;;;;;;;18.90;11.60;;;2.80;99.90;;;;;;5051307;28;20538;-76
2022/01/12 10:27:57;;;;;;;21.57;12.13;;;3.10;99.90;;;;;;5050267;28;20492;-75
2022/01/12 10:30:26;;;;;;;19.70;11.80;;;3.00;99.90;;;;;;5050664;28;20465;-75
2022/01/12 10:33:04;;;;;;;17.23;10.40;;;3.10;99.90;;;;;;5051051;28;20498;-75
2022/01/12 10:35:34;;;;;;;15.60;10.13;;;3.30;99.90;;;;;;5056587;28;20474;-76
2022/01/12 10:38:08;;;;;;;17.20;10.80;;;3.40;99.90;;;;;;5056772;28;20445;-76
2022/01/12 10:40:52;;;;;;;15.03;9.33;;;3.30;99.90;;;;;;5044266;28;20455;-76
2022/01/12 10:43:34;;;;;;;17.70;10.63;;;3.30;99.90;;;;;;5048074;28;20468;-76
2022/01/12 10:46:03;;;;;;;14.33;10.33;;;3.40;99.90;;;;;;5050384;28;20472;-75
2022/01/12 10:48:39;;;;;;;19.77;10.20;;;3.50;99.90;;;;;;5049150;28;20457;-75
2022/01/12 10:51:06;;;;;;;18.10;10.43;;;3.40;99.90;;;;;;5046626;28;20452;-76
2022/01/12 10:53:35;;;;;;;19.60;11.37;;;3.30;99.90;;;;;;5051353;28;20460;-76
2022/01/12 10:56:06;;;;;;;15.37;10.30;;;3.20;99.90;;;;;;5054650;28;20492;-75
2022/01/12 10:58:33;;;;;;;19.00;11.73;;;3.10;99.90;;;;;;5057370;28;20448;-74
2022/01/12 11:01:00;;;;;;;21.03;11.33;;;3.00;99.90;;;;;;5057273;28;20468;-76
2022/01/12 11:03:27;;;;;;;15.73;10.50;;;3.00;99.90;;;;;;5052358;28;20553;-75
2022/01/12 11:05:57;;;;;;;16.60;11.13;;;3.00;99.90;;;;;;5052826;28;20469;-75
2022/01/12 11:08:25;;;;;;;16.77;10.07;;;3.00;99.90;;;;;;5037073;28;20527;-76
2022/01/12 11:10:54;;;;;;;17.77;11.00;;;3.10;99.90;;;;;;5049139;28;20932;-76
2022/01/12 11:13:22;;;;;;;17.97;10.60;;;3.10;99.90;;;;;;5050299;28;20467;-76
2022/01/12 11:15:49;;;;;;;22.20;11.63;;;3.10;99.90;;;;;;5049699;28;20904;-76
2022/01/12 11:18:17;;;;;;;20.60;10.67;;;3.10;99.90;;;;;;5042795;28;20487;-76
2022/01/12 11:20:47;;;;;;;17.07;10.90;;;3.10;99.90;;;;;;5044276;28;20456;-75
2022/01/12 11:23:15;;;;;;;20.70;11.50;;;3.30;99.90;;;;;;5044982;28;20487;-76
2022/01/12 11:25:44;;;;;;;18.03;10.73;;;3.40;99.90;;;;;;5048653;28;20461;-75
2022/01/12 11:28:15;;;;;;;18.10;10.90;;;3.50;99.90;;;;;;5041877;28;20448;-76
2022/01/12 11:30:46;;;;;;;18.97;11.37;;;3.70;99.90;;;;;;5050052;28;20488;-76
2022/01/12 11:33:14;;;;;;;19.70;11.30;;;3.90;99.90;;;;;;5046380;28;20467;-76
2022/01/12 11:35:43;;;;;;;15.57;10.20;;;4.10;99.90;;;;;;5045374;28;20484;-74
2022/01/12 11:38:21;;;;;;;17.83;11.10;;;4.20;99.90;;;;;;5043565;28;20993;-75
2022/01/12 11:40:50;;;;;;;17.83;10.93;;;4.20;99.90;;;;;;5041407;28;20523;-76
2022/01/12 11:43:21;;;;;;;20.33;11.30;;;4.10;99.90;;;;;;5047822;28;21060;-77
2022/01/12 11:46:02;;;;;;;14.77;10.10;;;4.10;99.90;;;;;;5051802;28;20444;-76
2022/01/12 11:48:33;;;;;;;18.23;10.90;;;4.20;99.90;;;;;;5052908;28;20490;-76
2022/01/12 11:51:00;;;;;;;18.27;10.93;;;4.10;99.90;;;;;;5052389;28;20456;-76
2022/01/12 11:53:27;;;;;;;17.80;10.87;;;4.20;99.90;;;;;;5049749;28;20483;-76
2022/01/12 11:55:54;;;;;;;17.10;11.63;;;4.40;99.90;;;;;;5044319;28;20484;-76
2022/01/12 11:58:22;;;;;;;19.43;10.70;;;4.50;99.90;;;;;;5052155;28;20858;-76
2022/01/12 12:00:52;;;;;;;14.60;10.83;;;4.80;99.90;;;;;;5051379;28;20460;-76
2022/01/12 12:03:20;;;;;;;17.20;10.67;;;4.90;99.90;;;;;;5050505;28;20547;-76
2022/01/12 12:05:48;;;;;;;16.00;10.33;;;4.90;99.90;;;;;;5050368;28;20464;-75
2022/01/12 12:08:25;;;;;;;17.57;10.97;;;5.10;99.90;;;;;;5051609;28;20814;-75
2022/01/12 12:10:53;;;;;;;13.60;9.43;;;5.40;99.90;;;;;;5051555;28;20471;-75
2022/01/12 12:13:22;;;;;;;14.20;10.70;;;5.50;99.90;;;;;;5038906;28;20902;-75
2022/01/12 12:15:52;;;;;;;21.20;10.63;;;5.40;99.90;;;;;;5038390;28;21070;-76
2022/01/12 12:18:18;;;;;;;13.43;9.97;;;5.30;99.90;;;;;;5051470;28;20480;-75
2022/01/12 12:20:45;;;;;;;12.50;9.90;;;5.00;99.90;;;;;;5094616;22;20497;-73
2022/01/12 12:23:12;;;;;;;16.10;9.90;;;4.80;99.90;;;;;;5084532;28;20450;-71
2022/01/12 12:25:39;;;;;;;16.20;9.90;;;4.70;99.90;;;;;;5089212;28;20453;-71
2022/01/12 12:28:09;;;;;;;15.77;10.10;;;4.80;99.90;;;;;;5089551;28;20523;-71
2022/01/12 12:30:38;;;;;;;15.70;10.10;;;4.80;99.90;;;;;;5069808;28;20464;-71
2022/01/12 12:33:11;;;;;;;17.20;11.00;;;4.90;99.90;;;;;;5065858;28;20440;-72
2022/01/12 12:35:39;;;;;;;16.20;10.40;;;4.90;99.90;;;;;;5068825;28;20443;-72
2022/01/12 12:38:07;;;;;;;14.03;8.80;;;4.80;99.90;;;;;;5065759;28;20494;-72
2022/01/12 12:40:36;;;;;;;15.20;9.93;;;4.70;99.90;;;;;;5069882;28;20525;-72
2022/01/12 12:43:06;;;;;;;13.40;9.97;;;4.60;99.90;;;;;;5066277;28;20546;-73
2022/01/12 12:45:42;;;;;;;15.50;10.27;;;4.50;99.90;;;;;;5068091;28;20455;-72
2022/01/12 12:48:11;;;;;;;16.80;10.30;;;4.50;99.90;;;;;;5069309;28;20446;-72
2022/01/12 12:50:39;;;;;;;16.07;10.03;;;4.50;99.90;;;;;;5065427;28;20521;-72
2022/01/12 12:53:05;;;;;;;16.13;11.07;;;4.60;99.90;;;;;;5052158;28;20623;-73
2022/01/12 12:55:37;;;;;;;20.13;11.97;;;4.60;99.90;;;;;;5073787;28;20458;-73
2022/01/12 12:58:05;;;;;;;17.00;10.90;;;4.70;99.90;;;;;;5065658;28;20453;-69
2022/01/12 13:00:32;;;;;;;16.50;10.30;;;4.70;99.90;;;;;;5064129;28;20480;-70
2022/01/12 13:03:00;;;;;;;15.53;10.70;;;4.70;99.90;;;;;;5055470;28;20533;-69
2022/01/12 13:05:31;;;;;;;15.80;11.00;;;4.70;99.90;;;;;;5068868;28;20517;-69
2022/01/12 13:07:59;;;;;;;18.97;10.83;;;4.80;99.90;;;;;;5069284;28;20501;-69
2022/01/12 13:10:27;;;;;;;17.13;11.10;;;4.70;99.90;;;;;;5069596;28;20594;-70
2022/01/12 13:12:56;;;;;;;16.50;10.33;;;4.80;99.90;;;;;;5063937;28;20452;-69
2022/01/12 13:15:26;;;;;;;16.93;10.50;;;4.70;99.90;;;;;;5068740;28;20444;-70
2022/01/12 13:18:04;;;;;;;19.23;11.70;;;4.70;99.90;;;;;;5069839;28;20574;-70
2022/01/12 13:23:19;;;;;;;15.40;10.53;;;4.70;99.90;;;;;;5063575;28;20455;-70
2022/01/12 13:25:46;;;;;;;22.37;12.00;;;4.70;99.90;;;;;;5070342;28;20487;-70
2022/01/12 13:28:12;;;;;;;15.90;11.00;;;4.70;99.90;;;;;;5069701;28;20448;-70
2022/01/12 13:30:49;;;;;;;16.13;10.97;;;4.80;99.90;;;;;;5069083;28;20479;-69
2022/01/12 13:33:28;;;;;;;17.50;11.60;;;4.80;99.90;;;;;;5060610;28;20447;-70
2022/01/12 13:35:58;;;;;;;16.57;10.50;;;4.80;99.90;;;;;;5063912;28;21199;-69
2022/01/12 13:38:27;;;;;;;17.27;10.77;;;4.90;99.90;;;;;;5068668;28;20463;-70
2022/01/12 13:40:56;;;;;;;19.73;11.37;;;4.90;99.90;;;;;;5059280;28;20469;-70
2022/01/12 13:43:23;;;;;;;20.70;10.90;;;4.90;99.90;;;;;;5058444;28;20534;-69
2022/01/12 13:45:59;;;;;;;14.43;10.33;;;4.90;99.90;;;;;;5067318;28;20574;-69
2022/01/12 13:48:31;;;;;;;15.43;10.50;;;4.90;99.90;;;;;;5065292;28;20458;-69
2022/01/12 13:51:03;;;;;;;18.70;10.87;;;4.80;99.90;;;;;;5067945;28;20856;-68
2022/01/12 13:53:34;;;;;;;15.87;10.33;;;4.70;99.90;;;;;;5066819;28;20550;-69